Time;durP1;ratioP1;P1;durP2;ratioP2;P2;SDS_P1;SDS_P2;PMS_P1;PMS_P2;Temp;Humidity;BMP_temperature;BMP_pressure;BME280_temperature;BME280_humidity;BME280_pressure;Samples;Min_cycle;Max_cycle;Signal;HPM_P1;HPM_P2
2021/10/28 00:14:56;;;;;;;4.90;2.05;;;9.50;67.20;;;;;;2351570;53;21023;-73
2021/10/28 00:17:39;;;;;;;4.32;2.08;;;9.50;67.20;;;;;;2349266;53;21166;-73
2021/10/28 00:20:09;;;;;;;4.55;2.17;;;9.40;67.10;;;;;;2318240;54;21561;-73
2021/10/28 00:22:38;;;;;;;3.45;2.05;;;9.40;67.10;;;;;;2355938;53;21069;-70
2021/10/28 00:25:05;;;;;;;3.97;2.15;;;9.30;67.10;;;;;;2593321;52;20971;-73
2021/10/28 00:27:32;;;;;;;3.83;2.00;;;9.30;67.10;;;;;;2354355;53;21084;-71
2021/10/28 00:30:01;;;;;;;5.55;1.95;;;9.30;67.20;;;;;;2337559;54;20963;-76
2021/10/28 00:32:27;;;;;;;3.87;2.00;;;9.30;67.20;;;;;;2342750;53;21975;-76
2021/10/28 00:34:54;;;;;;;3.65;2.00;;;9.30;67.30;;;;;;2339285;54;21062;-73
2021/10/28 00:37:21;;;;;;;3.90;1.87;;;9.30;67.40;;;;;;2331471;53;21009;-71
2021/10/28 00:39:47;;;;;;;4.50;1.95;;;9.20;67.40;;;;;;2350765;53;21515;-71
2021/10/28 00:42:14;;;;;;;4.07;1.95;;;9.20;67.30;;;;;;2334709;53;21577;-72
2021/10/28 00:44:40;;;;;;;4.07;2.03;;;9.20;67.30;;;;;;2349259;53;21959;-74
2021/10/28 00:47:08;;;;;;;3.67;1.75;;;9.20;67.30;;;;;;2324799;54;20951;-71
2021/10/28 00:49:34;;;;;;;4.25;1.90;;;9.20;67.30;;;;;;2354052;53;20965;-73
2021/10/28 00:52:06;;;;;;;3.70;1.83;;;9.20;67.30;;;;;;2376723;52;20926;-74
2021/10/28 00:54:33;;;;;;;3.45;1.80;;;9.10;67.10;;;;;;2579105;52;20962;-73
2021/10/28 00:57:00;;;;;;;4.57;1.90;;;9.10;67.90;;;;;;2361595;53;20945;-71
2021/10/28 00:59:30;;;;;;;3.72;1.73;;;9.10;67.20;;;;;;2349194;53;20990;-75
2021/10/28 01:01:56;;;;;;;3.65;1.87;;;9.10;67.20;;;;;;2518433;52;21933;-75
2021/10/28 01:04:22;;;;;;;3.62;1.80;;;9.00;67.20;;;;;;2362536;53;20996;-71
2021/10/28 01:06:49;;;;;;;5.45;2.15;;;9.00;67.10;;;;;;2334317;53;20977;-73
2021/10/28 01:09:17;;;;;;;3.37;1.60;;;9.00;67.20;;;;;;2393674;53;21083;-70
2021/10/28 01:11:44;;;;;;;2.87;1.52;;;9.00;67.30;;;;;;2337406;53;20980;-75
2021/10/28 01:14:10;;;;;;;3.62;1.87;;;9.00;67.30;;;;;;2361562;53;21090;-74
2021/10/28 01:16:36;;;;;;;4.00;2.00;;;8.90;67.20;;;;;;2347995;53;21410;-75
2021/10/28 01:19:03;;;;;;;3.62;1.83;;;8.90;67.20;;;;;;2357551;53;20967;-73
2021/10/28 01:21:30;;;;;;;5.90;2.37;;;8.90;67.20;;;;;;2345361;53;20973;-70
2021/10/28 01:23:57;;;;;;;3.03;1.70;;;8.90;67.20;;;;;;2405290;52;20950;-76
2021/10/28 01:26:24;;;;;;;3.72;1.80;;;8.90;67.20;;;;;;2495472;52;22011;-72
2021/10/28 01:28:59;;;;;;;3.65;1.87;;;8.80;67.10;;;;;;2378915;53;20982;-74
2021/10/28 01:31:31;;;;;;;4.70;2.03;;;8.80;67.20;;;;;;2397304;52;21112;-73
2021/10/28 01:33:58;;;;;;;3.75;1.80;;;8.80;67.10;;;;;;2550048;52;20926;-73
2021/10/28 01:36:25;;;;;;;4.32;1.77;;;8.80;67.10;;;;;;2555112;52;21065;-73
2021/10/28 01:38:55;;;;;;;3.70;1.85;;;8.70;66.90;;;;;;2613496;52;21428;-74
2021/10/28 01:41:21;;;;;;;2.65;1.40;;;8.70;67.00;;;;;;2338593;54;21518;-74
2021/10/28 01:43:48;;;;;;;3.72;1.55;;;8.70;67.00;;;;;;2345680;53;21955;-72
2021/10/28 01:46:15;;;;;;;4.43;1.58;;;8.70;67.10;;;;;;2343120;53;20937;-72
2021/10/28 01:48:45;;;;;;;4.15;1.70;;;8.60;67.00;;;;;;2418564;52;21908;-72
2021/10/28 01:51:12;;;;;;;4.60;1.95;;;8.60;67.10;;;;;;2342411;53;20944;-74
2021/10/28 01:53:40;;;;;;;4.47;2.45;;;8.60;67.00;;;;;;2423061;52;20958;-75
2021/10/28 01:56:06;;;;;;;4.80;3.00;;;8.60;67.00;;;;;;2343559;53;21000;-73
2021/10/28 01:58:33;;;;;;;3.80;2.10;;;8.60;67.10;;;;;;2348266;53;20997;-74
2021/10/28 02:01:00;;;;;;;4.07;2.37;;;8.50;67.10;;;;;;2348000;53;20942;-72
2021/10/28 02:03:26;;;;;;;4.70;2.50;;;8.50;67.00;;;;;;2320656;54;21053;-72
2021/10/28 02:05:53;;;;;;;4.72;2.58;;;8.50;67.00;;;;;;2362450;53;20930;-71
2021/10/28 02:08:23;;;;;;;4.53;2.60;;;8.50;67.20;;;;;;2365520;53;22135;-71
2021/10/28 02:10:52;;;;;;;3.75;2.30;;;8.50;67.20;;;;;;2343247;54;20962;-74
2021/10/28 02:13:19;;;;;;;3.75;2.10;;;8.50;67.30;;;;;;2362060;53;20946;-75
2021/10/28 02:15:45;;;;;;;5.70;3.15;;;8.50;67.30;;;;;;2361518;53;20989;-70
2021/10/28 02:18:12;;;;;;;4.97;2.20;;;8.40;67.20;;;;;;2503093;52;21429;-73
2021/10/28 02:20:39;;;;;;;3.75;2.12;;;8.40;67.30;;;;;;2361757;53;20946;-73
2021/10/28 02:23:09;;;;;;;3.80;2.20;;;8.40;67.40;;;;;;2475125;52;22132;-74
2021/10/28 02:25:38;;;;;;;4.57;2.50;;;8.40;67.30;;;;;;2537302;52;20962;-71
2021/10/28 02:28:04;;;;;;;5.87;2.40;;;8.40;67.30;;;;;;2364279;53;21133;-72
2021/10/28 02:30:32;;;;;;;4.12;2.15;;;8.40;67.30;;;;;;2328230;54;20931;-70
2021/10/28 02:32:59;;;;;;;4.20;2.00;;;8.40;67.50;;;;;;2338256;53;20978;-72
2021/10/28 02:35:26;;;;;;;4.10;2.10;;;8.40;67.60;;;;;;2339178;53;20943;-75
2021/10/28 02:37:52;;;;;;;3.35;1.95;;;8.40;67.60;;;;;;2361969;53;20982;-70
2021/10/28 02:40:20;;;;;;;3.50;2.00;;;8.40;67.60;;;;;;2341841;54;21258;-72
2021/10/28 02:42:47;;;;;;;3.35;1.70;;;8.40;67.60;;;;;;2361447;53;20942;-73
2021/10/28 02:45:13;;;;;;;4.35;2.20;;;8.40;67.60;;;;;;2357587;53;22029;-72
2021/10/28 02:47:40;;;;;;;3.70;2.10;;;8.40;67.60;;;;;;2335036;53;20990;-72
2021/10/28 02:50:07;;;;;;;4.30;2.12;;;8.30;67.50;;;;;;2583340;52;20950;-74
2021/10/28 02:52:37;;;;;;;3.40;1.75;;;8.30;67.40;;;;;;2326360;54;20999;-69
2021/10/28 02:55:05;;;;;;;2.87;1.58;;;8.30;67.40;;;;;;2403387;52;21017;-71
2021/10/28 02:57:32;;;;;;;3.33;1.58;;;8.30;67.40;;;;;;2401351;52;20942;-73
2021/10/28 02:59:58;;;;;;;3.50;1.65;;;8.30;67.30;;;;;;2563784;52;20930;-74
2021/10/28 03:02:25;;;;;;;3.03;1.62;;;8.30;67.30;;;;;;2362227;53;20938;-73
2021/10/28 03:04:51;;;;;;;3.92;1.60;;;8.30;67.40;;;;;;2432266;52;21543;-74
2021/10/28 03:07:18;;;;;;;3.33;1.77;;;8.30;67.30;;;;;;2361805;53;20922;-72
2021/10/28 03:09:45;;;;;;;3.67;2.20;;;8.30;67.30;;;;;;2362046;53;21073;-70
2021/10/28 03:12:14;;;;;;;2.65;1.50;;;8.30;67.30;;;;;;2553370;52;21019;-73
2021/10/28 03:14:44;;;;;;;2.90;1.52;;;8.20;67.20;;;;;;2337179;53;21001;-72
2021/10/28 03:17:29;;;;;;;3.80;1.98;;;8.20;67.20;;;;;;2497750;52;20942;-72
2021/10/28 03:26:31;;;;;;;2.90;1.27;;;8.20;67.20;;;;;;2337816;54;20941;-75
2021/10/28 03:28:57;;;;;;;2.75;1.30;;;8.20;67.20;;;;;;2349362;53;20966;-72
2021/10/28 03:31:24;;;;;;;3.25;1.58;;;8.10;67.20;;;;;;2362590;53;20949;-72
2021/10/28 03:33:52;;;;;;;3.33;1.70;;;8.10;67.30;;;;;;2360735;53;20962;-71
2021/10/28 03:36:35;;;;;;;3.40;1.55;;;8.10;67.30;;;;;;2368529;53;20910;-70
2021/10/28 03:39:15;;;;;;;3.15;1.62;;;8.10;67.40;;;;;;2318939;54;20907;-72
2021/10/28 03:42:40;;;;;;;3.97;1.55;;;8.10;67.50;;;;;;2355641;53;21849;-72
2021/10/28 04:03:50;;;;;;;2.90;1.40;;;8.10;67.50;;;;;;2346000;53;21018;-72
2021/10/28 04:07:08;;;;;;;3.08;1.50;;;8.10;67.60;;;;;;2340595;53;21021;-73
2021/10/28 04:29:17;;;;;;;3.17;1.75;;;8.00;67.70;;;;;;2352529;53;21026;-73
2021/10/28 04:31:44;;;;;;;3.87;1.90;;;8.00;67.90;;;;;;2464418;52;20985;-74
2021/10/28 04:34:11;;;;;;;4.32;2.22;;;8.00;68.00;;;;;;2331794;54;20955;-69
2021/10/28 04:36:38;;;;;;;4.57;2.33;;;8.00;68.10;;;;;;2322945;54;21343;-71
2021/10/28 04:39:06;;;;;;;3.87;2.03;;;8.10;68.20;;;;;;2361620;53;21662;-73
2021/10/28 04:41:34;;;;;;;4.53;2.20;;;8.00;68.00;;;;;;2349638;53;20941;-73
2021/10/28 04:44:01;;;;;;;3.92;2.28;;;8.10;68.10;;;;;;2318607;54;20925;-71
2021/10/28 04:46:29;;;;;;;6.53;2.90;;;8.00;67.90;;;;;;2337628;53;20952;-73
2021/10/28 04:48:55;;;;;;;6.30;2.50;;;8.10;68.00;;;;;;2369280;52;20973;-73
2021/10/28 04:51:22;;;;;;;3.87;2.20;;;8.10;68.00;;;;;;2323286;54;20994;-70
2021/10/28 04:53:49;;;;;;;4.32;2.45;;;8.10;68.10;;;;;;2462935;52;20959;-73
2021/10/28 04:56:16;;;;;;;5.00;2.30;;;8.10;68.00;;;;;;2325794;54;20965;-70
2021/10/28 04:58:43;;;;;;;5.55;3.08;;;8.10;68.00;;;;;;2325867;54;21779;-74
2021/10/28 05:01:11;;;;;;;5.07;3.10;;;8.10;68.00;;;;;;2334405;54;20975;-72
2021/10/28 05:03:37;;;;;;;5.53;2.65;;;8.10;67.90;;;;;;2343214;53;21892;-69
2021/10/28 05:06:04;;;;;;;6.12;3.08;;;8.10;68.00;;;;;;2345429;53;20967;-74
2021/10/28 05:08:30;;;;;;;7.80;3.35;;;8.00;68.30;;;;;;2414935;52;20949;-72
2021/10/28 05:10:57;;;;;;;5.47;3.05;;;8.10;68.70;;;;;;2345557;53;21383;-73
2021/10/28 05:13:25;;;;;;;7.45;2.95;;;8.10;68.90;;;;;;2328951;54;21824;-71
2021/10/28 05:15:54;;;;;;;7.20;3.55;;;8.10;68.90;;;;;;2333874;53;21906;-71
2021/10/28 05:18:24;;;;;;;7.97;4.05;;;8.20;68.90;;;;;;2348616;53;21800;-71
2021/10/28 05:20:51;;;;;;;7.57;4.22;;;8.20;68.70;;;;;;2352112;53;20956;-73
2021/10/28 05:23:18;;;;;;;13.45;6.22;;;8.20;68.60;;;;;;2323408;54;21019;-71
2021/10/28 05:25:47;;;;;;;10.30;6.10;;;8.20;68.50;;;;;;2347156;53;20984;-71
2021/10/28 05:28:13;;;;;;;7.75;4.47;;;8.20;68.50;;;;;;2324070;54;21004;-73
2021/10/28 05:30:40;;;;;;;10.23;4.47;;;8.20;68.40;;;;;;2342724;53;20964;-72
2021/10/28 05:33:11;;;;;;;7.05;4.70;;;8.20;68.30;;;;;;2332870;54;21770;-70
2021/10/28 05:35:39;;;;;;;7.47;4.57;;;8.20;68.30;;;;;;2339942;53;20925;-71
2021/10/28 05:38:08;;;;;;;7.20;3.97;;;8.20;68.30;;;;;;2322156;54;20941;-73
2021/10/28 05:40:34;;;;;;;8.35;4.47;;;8.20;68.30;;;;;;2381087;53;21071;-71
2021/10/28 05:43:01;;;;;;;6.50;3.58;;;8.20;68.10;;;;;;2335224;53;21479;-74
2021/10/28 05:45:32;;;;;;;5.15;3.10;;;8.20;68.00;;;;;;2362522;53;20974;-73
2021/10/28 05:47:58;;;;;;;7.25;3.45;;;8.20;67.90;;;;;;2340044;53;20937;-71
2021/10/28 05:50:25;;;;;;;5.50;2.85;;;8.20;67.90;;;;;;2350428;53;21342;-73
2021/10/28 05:52:53;;;;;;;5.68;3.20;;;8.10;67.80;;;;;;2418739;53;21461;-74
2021/10/28 05:55:24;;;;;;;6.12;3.62;;;8.10;67.80;;;;;;2371387;53;21001;-73
2021/10/28 05:57:51;;;;;;;5.62;3.20;;;8.10;67.80;;;;;;2328706;53;20970;-71
2021/10/28 06:00:18;;;;;;;7.53;3.95;;;8.10;67.90;;;;;;2360832;53;20990;-73
2021/10/28 06:02:47;;;;;;;6.32;3.92;;;8.10;67.80;;;;;;2344211;53;20935;-73
2021/10/28 06:05:13;;;;;;;5.60;3.33;;;8.10;67.80;;;;;;2326700;53;21585;-73
2021/10/28 06:07:40;;;;;;;6.50;3.37;;;8.10;67.80;;;;;;2343302;53;21012;-72
2021/10/28 06:10:08;;;;;;;6.72;3.03;;;8.10;67.80;;;;;;2483319;52;20984;-72
2021/10/28 06:12:38;;;;;;;5.80;3.72;;;8.10;67.80;;;;;;2371224;52;21658;-73
2021/10/28 06:15:06;;;;;;;6.65;4.05;;;8.00;67.70;;;;;;2332742;54;20995;-69
2021/10/28 06:17:44;;;;;;;6.50;3.70;;;8.00;67.60;;;;;;2353527;53;21109;-74
2021/10/28 06:20:11;;;;;;;6.20;3.28;;;8.00;67.60;;;;;;2337937;54;20928;-73
2021/10/28 06:22:37;;;;;;;4.72;2.95;;;8.00;67.50;;;;;;2362659;53;21762;-70
2021/10/28 06:25:04;;;;;;;5.85;3.28;;;7.90;67.40;;;;;;2333906;54;20983;-73
2021/10/28 06:27:31;;;;;;;6.35;3.70;;;7.90;67.50;;;;;;2415837;52;21082;-72
2021/10/28 06:29:57;;;;;;;5.47;3.37;;;7.90;67.50;;;;;;2368746;53;21066;-73
2021/10/28 06:32:23;;;;;;;6.57;3.70;;;7.90;67.60;;;;;;2358391;53;21012;-70
2021/10/28 06:34:51;;;;;;;7.97;4.68;;;7.90;67.60;;;;;;2360855;53;21757;-73
2021/10/28 06:37:17;;;;;;;7.18;4.47;;;7.90;67.70;;;;;;2368255;53;21001;-72
2021/10/28 06:39:47;;;;;;;7.53;4.50;;;7.80;67.80;;;;;;2367980;53;21747;-71
2021/10/28 06:42:14;;;;;;;9.15;4.62;;;7.80;67.80;;;;;;2368476;53;20933;-73
2021/10/28 06:44:41;;;;;;;7.30;5.10;;;7.80;67.80;;;;;;2424619;52;21663;-73
2021/10/28 06:47:07;;;;;;;6.62;4.35;;;7.80;67.90;;;;;;2351452;54;20926;-70
2021/10/28 06:49:38;;;;;;;6.75;4.10;;;7.80;68.00;;;;;;2406031;52;20958;-71
2021/10/28 06:52:07;;;;;;;6.82;3.62;;;7.80;67.80;;;;;;2368962;53;20925;-70
2021/10/28 06:54:38;;;;;;;6.75;3.62;;;7.80;67.70;;;;;;2350735;53;20947;-72
2021/10/28 07:02:15;;;;;;;6.03;3.75;;;7.80;67.80;;;;;;2367694;53;21641;-72
2021/10/28 07:04:43;;;;;;;5.15;2.97;;;7.80;67.80;;;;;;2377257;52;20934;-72
2021/10/28 07:07:10;;;;;;;6.70;3.90;;;7.80;67.80;;;;;;2468909;52;21069;-73
2021/10/28 07:09:39;;;;;;;5.80;3.42;;;7.80;68.00;;;;;;2422062;52;21537;-73
2021/10/28 07:12:43;;;;;;;8.25;4.68;;;7.80;68.10;;;;;;2356832;53;20956;-72
2021/10/28 07:17:19;;;;;;;8.75;5.35;;;7.80;68.10;;;;;;2370037;53;21006;-71
2021/10/28 07:35:04;;;;;;;14.50;6.15;;;7.90;68.80;;;;;;2368372;53;20930;-73
2021/10/28 08:14:17;;;;;;;5.30;2.95;;;8.70;70.80;;;;;;2421517;52;21061;-73
2021/10/28 08:29:30;;;;;;;;;;;;;;;;;;;;;
2021/10/28 08:31:57;;;;;;;5.18;3.00;;;9.60;72.50;;;;;;2357480;53;21708;-71
2021/10/28 08:34:31;;;;;;;6.65;3.70;;;9.80;72.80;;;;;;2407861;53;20946;-73
2021/10/28 08:37:10;;;;;;;8.48;4.05;;;9.90;72.90;;;;;;2347681;53;20993;-72
2021/10/28 08:39:36;;;;;;;6.80;4.05;;;10.10;72.10;;;;;;2352240;53;20934;-71
2021/10/28 08:42:09;;;;;;;7.78;4.53;;;10.20;72.20;;;;;;2368930;53;21010;-73
2021/10/28 08:44:40;;;;;;;7.18;4.68;;;10.30;72.30;;;;;;2365566;52;21075;-72
2021/10/28 08:47:09;;;;;;;8.30;5.12;;;10.40;72.30;;;;;;2355788;53;20968;-72
2021/10/28 08:49:41;;;;;;;8.20;4.82;;;10.60;72.40;;;;;;2352623;53;20966;-72
2021/10/28 09:23:53;;;;;;;8.57;5.68;;;11.80;72.60;;;;;;2449329;53;20948;-73
2021/10/28 09:26:33;;;;;;;8.70;4.78;;;12.10;72.30;;;;;;2343585;55;20996;-73
2021/10/28 09:29:41;;;;;;;8.05;4.85;;;12.40;72.80;;;;;;2343570;55;20953;-73
2021/10/28 09:34:16;;;;;;;8.05;4.47;;;12.50;72.80;;;;;;2343410;55;20957;-73
2021/10/28 09:45:57;;;;;;;8.45;4.87;;;13.40;73.60;;;;;;2339778;54;21004;-74
2021/10/28 09:52:33;;;;;;;6.85;4.40;;;13.80;73.90;;;;;;2351726;53;20973;-74
2021/10/28 09:58:02;;;;;;;7.05;4.65;;;14.20;72.80;;;;;;2354977;53;20954;-74
2021/10/28 10:00:39;;;;;;;7.67;4.67;;;14.30;73.00;;;;;;2370749;53;20973;-72
2021/10/28 10:03:13;;;;;;;6.85;4.50;;;14.40;72.50;;;;;;2384643;53;22244;-73
2021/10/28 10:05:40;;;;;;;7.82;4.37;;;14.50;72.50;;;;;;2354091;53;20963;-73
2021/10/28 10:08:11;;;;;;;11.40;5.90;;;14.60;72.50;;;;;;2334577;54;21041;-74
2021/10/28 10:10:39;;;;;;;7.12;4.72;;;14.60;72.40;;;;;;2340145;54;20952;-73
2021/10/28 10:13:05;;;;;;;8.13;5.45;;;14.70;72.50;;;;;;2356191;53;20966;-73
2021/10/28 10:15:32;;;;;;;7.37;5.12;;;14.80;72.50;;;;;;2371117;53;21744;-74
2021/10/28 10:18:01;;;;;;;7.60;4.82;;;14.90;72.30;;;;;;2348082;53;20991;-73
2021/10/28 10:20:42;;;;;;;8.15;4.37;;;15.00;72.20;;;;;;2349403;53;21059;-73
2021/10/28 10:23:32;;;;;;;6.72;4.53;;;15.10;72.20;;;;;;2346840;54;20960;-74
2021/10/28 11:05:31;;;;;;;7.43;4.40;;;16.60;71.50;;;;;;2370631;53;21051;-72
2021/10/28 11:15:47;;;;;;;6.70;4.20;;;16.70;70.70;;;;;;2366713;53;20930;-72
2021/10/28 11:27:52;;;;;;;7.22;3.70;;;17.10;71.00;;;;;;2347568;53;21278;-72
2021/10/28 12:16:34;;;;;;;4.40;3.03;;;18.70;70.30;;;;;;2354462;53;20947;-72
2021/10/28 12:28:01;;;;;;;6.37;2.70;;;19.00;69.60;;;;;;2371293;53;21474;-69
2021/10/28 12:44:59;;;;;;;3.28;1.85;;;19.90;67.60;;;;;;2413178;52;21084;-71
2021/10/28 12:57:11;;;;;;;3.20;1.58;;;20.50;68.50;;;;;;2370803;53;20926;-73
2021/10/28 13:02:59;;;;;;;3.30;1.48;;;20.80;67.10;;;;;;2378480;52;21693;-70
2021/10/28 13:35:13;;;;;;;2.53;1.30;;;21.90;64.90;;;;;;2359466;53;20975;-72
2021/10/28 14:39:09;;;;;;;2.47;1.05;;;22.80;62.40;;;;;;2342043;53;20956;-71
2021/10/28 15:30:02;;;;;;;2.50;1.20;;;20.90;60.40;;;;;;2343271;53;21040;-73
2021/10/28 15:33:13;;;;;;;;;;;;;;;;;;;;;
2021/10/28 15:35:44;;;;;;;1.95;1.02;;;20.60;60.20;;;;;;2347271;53;20939;-71
2021/10/28 15:38:24;;;;;;;3.30;1.23;;;20.40;60.10;;;;;;2401071;53;20908;-72
2021/10/28 15:58:03;;;;;;;2.95;1.50;;;19.50;60.00;;;;;;2325659;54;20951;-73
2021/10/28 16:22:34;;;;;;;4.07;1.30;;;18.10;60.80;;;;;;2355186;53;20994;-71
2021/10/28 16:25:01;;;;;;;5.03;2.10;;;18.00;60.90;;;;;;2371158;53;20990;-69
2021/10/28 16:27:27;;;;;;;4.80;1.60;;;17.90;60.90;;;;;;2410082;52;21007;-73
2021/10/28 16:29:54;;;;;;;3.75;1.70;;;17.80;61.00;;;;;;2344503;53;20970;-72
2021/10/28 16:32:20;;;;;;;2.97;1.70;;;17.70;60.90;;;;;;2357845;53;22654;-71
2021/10/28 16:34:46;;;;;;;3.00;1.50;;;17.60;60.90;;;;;;2357657;53;21480;-68
2021/10/28 16:37:14;;;;;;;2.62;1.45;;;17.50;60.90;;;;;;2371436;53;20982;-71
2021/10/28 16:39:42;;;;;;;3.10;1.48;;;17.30;60.80;;;;;;2370868;53;20957;-72
2021/10/28 16:42:08;;;;;;;3.42;1.73;;;17.20;60.90;;;;;;2356864;53;21997;-71
2021/10/28 16:44:35;;;;;;;2.87;1.45;;;17.10;61.00;;;;;;2366964;53;20914;-68
2021/10/28 16:47:04;;;;;;;3.85;1.87;;;17.00;61.00;;;;;;2360587;53;21848;-67
2021/10/28 16:49:31;;;;;;;4.80;2.37;;;16.90;61.10;;;;;;2342912;54;20934;-71
2021/10/28 16:51:57;;;;;;;3.60;1.85;;;16.80;61.10;;;;;;2407767;52;21368;-71
2021/10/28 16:54:26;;;;;;;3.00;1.58;;;16.70;61.10;;;;;;2357456;53;20927;-70
2021/10/28 16:56:52;;;;;;;3.35;1.75;;;16.70;61.10;;;;;;2343378;54;20911;-70
2021/10/28 16:59:19;;;;;;;4.35;1.80;;;16.50;61.00;;;;;;2349874;53;20967;-70
2021/10/28 17:01:45;;;;;;;3.08;1.58;;;16.40;61.10;;;;;;2366598;53;20926;-71
2021/10/28 17:04:12;;;;;;;3.35;1.73;;;16.20;61.10;;;;;;2368202;53;20926;-72
2021/10/28 17:06:38;;;;;;;3.90;1.85;;;16.30;61.30;;;;;;2454074;52;20939;-70
2021/10/28 17:09:08;;;;;;;4.75;1.80;;;16.10;61.20;;;;;;2349979;53;20931;-70
2021/10/28 17:11:38;;;;;;;3.83;1.90;;;16.10;61.40;;;;;;2330381;54;20974;-70
2021/10/28 17:14:08;;;;;;;3.50;1.62;;;16.00;61.20;;;;;;2361322;53;20938;-70
2021/10/28 17:16:35;;;;;;;3.40;1.95;;;15.90;61.30;;;;;;2369113;53;21771;-70
2021/10/28 17:19:10;;;;;;;3.60;1.90;;;15.80;61.40;;;;;;2411894;52;20978;-68
2021/10/28 17:21:36;;;;;;;4.43;2.10;;;15.70;61.20;;;;;;2372771;53;21009;-71
2021/10/28 17:24:08;;;;;;;3.92;1.90;;;15.60;61.30;;;;;;2349767;53;21029;-69
2021/10/28 17:26:34;;;;;;;3.37;1.90;;;15.50;61.30;;;;;;2368454;53;21139;-70
2021/10/28 17:29:02;;;;;;;3.67;2.00;;;15.40;61.30;;;;;;2351357;54;21005;-69
2021/10/28 17:31:32;;;;;;;4.25;2.50;;;15.30;61.30;;;;;;2368910;53;20977;-68
2021/10/28 17:34:01;;;;;;;4.70;2.70;;;15.20;61.30;;;;;;2339192;53;21084;-69
2021/10/28 17:36:28;;;;;;;4.57;2.42;;;15.20;61.40;;;;;;2350206;53;20958;-70
2021/10/28 17:38:55;;;;;;;5.00;2.53;;;15.10;61.50;;;;;;2343887;54;20948;-69
2021/10/28 17:41:21;;;;;;;5.65;3.08;;;15.00;61.60;;;;;;2368751;53;20957;-68
2021/10/28 17:43:51;;;;;;;5.62;2.75;;;14.90;61.60;;;;;;2348737;53;20926;-71
2021/10/28 17:46:18;;;;;;;4.55;2.60;;;14.80;61.70;;;;;;2353811;53;20935;-70
2021/10/28 17:48:45;;;;;;;6.03;3.10;;;14.70;61.80;;;;;;2351344;53;20953;-69
2021/10/28 17:51:11;;;;;;;4.72;2.50;;;14.70;61.90;;;;;;2362310;53;21011;-71
2021/10/28 17:53:38;;;;;;;4.35;2.62;;;14.60;62.00;;;;;;2338981;54;21783;-69
2021/10/28 17:56:04;;;;;;;4.53;2.25;;;14.50;62.00;;;;;;2345192;53;21597;-69
2021/10/28 17:58:31;;;;;;;4.40;2.45;;;14.50;62.00;;;;;;2362717;53;21987;-70
2021/10/28 18:00:57;;;;;;;4.45;2.58;;;14.40;62.00;;;;;;2338289;54;21527;-70
2021/10/28 18:03:24;;;;;;;4.25;2.12;;;14.30;61.90;;;;;;2356219;53;21007;-69
2021/10/28 18:05:51;;;;;;;4.50;2.70;;;14.30;62.00;;;;;;2358770;53;20965;-68
2021/10/28 18:08:18;;;;;;;5.37;2.45;;;14.20;62.00;;;;;;2365428;53;21959;-68
2021/10/28 18:10:44;;;;;;;4.72;2.37;;;14.10;62.00;;;;;;2360449;53;20930;-70
2021/10/28 18:13:12;;;;;;;5.12;2.58;;;14.10;62.10;;;;;;2414035;52;21003;-70
2021/10/28 18:15:42;;;;;;;4.28;2.42;;;14.00;62.10;;;;;;2331903;54;21874;-71
2021/10/28 18:18:10;;;;;;;5.32;2.40;;;13.90;62.10;;;;;;2339534;54;21396;-69
2021/10/28 18:20:40;;;;;;;3.80;2.30;;;13.90;62.20;;;;;;2324587;54;20957;-68
2021/10/28 18:23:17;;;;;;;5.03;2.90;;;13.90;62.30;;;;;;2360415;53;20985;-71
2021/10/28 18:25:44;;;;;;;6.75;2.37;;;13.80;62.20;;;;;;2341560;53;20932;-70
2021/10/28 18:28:10;;;;;;;4.28;2.33;;;13.80;62.20;;;;;;2321350;54;20958;-69
2021/10/28 18:30:38;;;;;;;6.57;2.78;;;13.70;62.10;;;;;;2359857;53;20961;-69
2021/10/28 18:33:06;;;;;;;6.68;2.92;;;13.60;62.10;;;;;;2374493;52;20923;-68
2021/10/28 18:35:32;;;;;;;6.87;3.20;;;13.50;62.10;;;;;;2406208;52;21606;-67
2021/10/28 18:37:59;;;;;;;9.20;3.87;;;13.50;62.20;;;;;;2356796;53;20993;-69
2021/10/28 18:40:25;;;;;;;6.60;3.58;;;13.40;62.20;;;;;;2399645;52;22058;-70
2021/10/28 18:42:55;;;;;;;8.10;3.80;;;13.30;62.10;;;;;;2325680;53;21308;-70
2021/10/28 18:45:21;;;;;;;7.78;3.85;;;13.30;62.20;;;;;;2341046;54;21038;-69
2021/10/28 18:47:49;;;;;;;6.43;3.75;;;13.20;62.20;;;;;;2355551;53;20930;-70
2021/10/28 18:50:15;;;;;;;5.97;3.45;;;13.20;62.30;;;;;;2346496;54;21007;-69
2021/10/28 18:52:45;;;;;;;5.53;3.30;;;13.10;62.30;;;;;;2424539;53;20928;-68
2021/10/28 18:55:11;;;;;;;6.28;3.33;;;13.10;62.30;;;;;;2350391;53;21059;-71
2021/10/28 18:57:39;;;;;;;6.62;3.35;;;13.00;62.30;;;;;;2341012;53;20918;-68
2021/10/28 19:00:07;;;;;;;7.85;3.78;;;12.90;62.90;;;;;;2349187;53;20959;-69
2021/10/28 19:02:36;;;;;;;6.65;3.17;;;12.90;62.30;;;;;;2352629;53;20981;-70
2021/10/28 19:05:06;;;;;;;5.60;3.30;;;12.90;62.50;;;;;;2332424;54;20964;-69
2021/10/28 19:07:34;;;;;;;5.95;2.80;;;12.80;62.40;;;;;;2333348;53;21034;-70
2021/10/28 19:10:01;;;;;;;4.87;2.78;;;12.70;62.40;;;;;;2351085;53;20960;-69
2021/10/28 19:12:27;;;;;;;5.62;3.03;;;12.70;62.40;;;;;;2344981;53;20978;-69
2021/10/28 19:14:54;;;;;;;7.62;3.25;;;12.60;62.40;;;;;;2360500;53;21053;-68
2021/10/28 19:17:21;;;;;;;7.62;3.33;;;12.60;62.50;;;;;;2397333;52;21060;-68
2021/10/28 19:19:47;;;;;;;5.85;3.03;;;12.50;62.40;;;;;;2336767;53;21057;-67
2021/10/28 19:22:17;;;;;;;6.82;3.83;;;12.50;62.50;;;;;;2316335;54;21078;-69
2021/10/28 19:24:43;;;;;;;8.75;4.45;;;12.40;62.40;;;;;;2356970;53;21463;-68
2021/10/28 19:27:12;;;;;;;9.38;5.12;;;12.30;62.40;;;;;;2360325;53;21211;-68
2021/10/28 19:29:43;;;;;;;9.27;4.72;;;12.30;62.40;;;;;;2343600;53;20938;-68
2021/10/28 19:32:22;;;;;;;7.57;4.78;;;12.20;62.40;;;;;;2350401;53;21075;-70
2021/10/28 19:34:48;;;;;;;10.15;5.20;;;12.20;62.60;;;;;;2318626;55;21124;-69
2021/10/28 19:37:25;;;;;;;9.90;5.07;;;12.20;62.70;;;;;;2360591;53;21664;-69
2021/10/28 19:40:16;;;;;;;7.60;5.18;;;12.10;62.60;;;;;;2420384;52;21026;-70
2021/10/28 19:54:43;;;;;;;9.80;5.18;;;12.00;62.70;;;;;;2343518;53;21086;-68
2021/10/28 19:57:20;;;;;;;13.45;7.30;;;11.90;62.60;;;;;;2592461;52;21039;-68
2021/10/28 19:59:52;;;;;;;13.88;7.18;;;11.80;62.70;;;;;;2354263;53;20997;-71
2021/10/28 20:02:38;;;;;;;12.65;6.05;;;11.70;62.70;;;;;;2360993;53;21638;-69
2021/10/28 20:14:10;;;;;;;12.40;6.12;;;11.50;63.00;;;;;;2348185;53;20945;-70
2021/10/28 20:22:06;;;;;;;10.90;5.75;;;11.50;63.50;;;;;;2323302;54;22022;-67
2021/10/28 20:24:33;;;;;;;12.37;6.37;;;11.40;63.40;;;;;;2330683;53;22027;-68
2021/10/28 20:27:00;;;;;;;13.45;7.00;;;11.40;63.40;;;;;;2355849;53;20929;-69
2021/10/28 20:29:29;;;;;;;17.62;9.15;;;11.30;63.30;;;;;;2360577;53;20934;-68
2021/10/28 20:31:56;;;;;;;18.67;9.27;;;11.30;63.30;;;;;;2341680;53;20947;-69
2021/10/28 20:38:25;;;;;;;16.05;8.20;;;11.20;63.20;;;;;;2341512;54;20970;-69
2021/10/28 20:40:52;;;;;;;17.92;9.48;;;11.20;63.30;;;;;;2342553;53;21004;-67
2021/10/28 20:43:18;;;;;;;17.65;9.02;;;11.20;63.40;;;;;;2360132;53;21013;-68
2021/10/28 20:45:46;;;;;;;16.67;8.07;;;11.20;63.40;;;;;;2349301;53;21679;-68
2021/10/28 20:48:12;;;;;;;14.02;7.43;;;11.10;63.30;;;;;;2402354;52;20918;-69
2021/10/28 20:50:38;;;;;;;12.27;6.40;;;11.10;63.30;;;;;;2341502;53;21011;-68
2021/10/28 20:53:05;;;;;;;10.43;5.07;;;11.00;63.30;;;;;;2607755;52;21049;-69
2021/10/28 20:55:32;;;;;;;10.40;5.55;;;11.00;63.50;;;;;;2334787;53;20965;-67
2021/10/28 20:57:58;;;;;;;7.25;4.18;;;11.00;63.50;;;;;;2346444;53;20963;-70
2021/10/28 21:00:25;;;;;;;10.45;4.70;;;11.00;63.50;;;;;;2357125;53;21025;-67
2021/10/28 21:02:58;;;;;;;8.55;4.78;;;11.00;63.50;;;;;;2331078;53;20909;-69
2021/10/28 21:05:25;;;;;;;9.23;5.45;;;10.90;63.60;;;;;;2334443;53;20937;-69
2021/10/28 21:07:52;;;;;;;9.90;5.62;;;10.90;63.80;;;;;;2359808;53;22042;-69
2021/10/28 21:10:24;;;;;;;9.60;5.53;;;10.90;64.00;;;;;;2483748;52;20966;-70
2021/10/28 21:12:51;;;;;;;8.45;4.57;;;10.90;64.00;;;;;;2368954;53;20982;-69
2021/10/28 21:15:18;;;;;;;7.50;4.65;;;10.90;64.00;;;;;;2396867;52;21001;-68
2021/10/28 21:17:45;;;;;;;9.23;5.53;;;10.80;64.00;;;;;;2342536;53;20944;-67
2021/10/28 21:20:12;;;;;;;9.02;4.80;;;10.90;64.10;;;;;;2357873;54;20978;-69
2021/10/28 21:22:38;;;;;;;8.90;5.12;;;10.80;64.00;;;;;;2368866;56;21038;-68
2021/10/28 21:25:06;;;;;;;7.15;4.65;;;10.80;64.00;;;;;;2368542;56;21042;-68
2021/10/28 21:27:33;;;;;;;10.07;5.82;;;10.80;64.10;;;;;;2373196;53;20971;-68
2021/10/28 21:30:01;;;;;;;8.73;5.28;;;10.80;64.10;;;;;;2382637;53;20942;-69
2021/10/28 21:32:28;;;;;;;9.07;5.97;;;10.80;64.10;;;;;;2369765;53;20986;-70
2021/10/28 21:34:55;;;;;;;9.77;5.20;;;10.80;64.00;;;;;;2356889;52;21488;-67
2021/10/28 21:37:22;;;;;;;9.02;4.78;;;10.80;63.90;;;;;;2367038;53;21025;-68
2021/10/28 21:39:50;;;;;;;8.48;5.47;;;10.70;63.80;;;;;;2594493;52;21803;-69
2021/10/28 21:42:16;;;;;;;8.43;5.35;;;10.70;63.80;;;;;;2332323;54;21857;-68
2021/10/28 21:44:43;;;;;;;9.77;5.70;;;10.70;63.80;;;;;;2362299;52;21089;-69
2021/10/28 21:47:11;;;;;;;8.10;5.18;;;10.60;63.70;;;;;;2318804;54;22278;-69
2021/10/28 21:49:40;;;;;;;10.45;5.22;;;10.60;63.70;;;;;;2331049;54;20943;-68
2021/10/28 21:52:15;;;;;;;9.73;6.12;;;10.60;63.70;;;;;;2441034;52;21020;-69